Nebraska City, NE

11:49 PM CDT on July 26, 2017 (GMT -0500)
Nebraska City Municipal | | Change Station

Elev 1161 ft 40.60 °N, 95.87 °W | Updated 14 minutes ago

Overcast
Overcast
75 °F
Feels Like 75 °F
N
0
Wind Variable Wind from North

Today
High -- | Low -- °F
--% Chance of Precip.
Yesterday
High -- | Low -- °F
Precip. -- in
Pressure 30.01 in
Visibility 2.5 miles
Clouds Scattered Clouds 200 ft
Mostly Cloudy 700 ft
Overcast 2300 ft
Dew Point 75 °F
Humidity 100%
Rainfall 1.77 in
Snow Depth Not available.
6:14 AM 8:44 PM
Waxing Crescent, 18% visible
METAR KAFK 270435Z AUTO 00000KT 2 1/2SM BR SCT002 BKN007 OVC023 24/24 A3001 RMK AO2 T02400240
Pressure 30.01 in
Visibility 2.5 miles
Clouds Scattered Clouds 200 ft
Mostly Cloudy 700 ft
Overcast 2300 ft
Dew Point 75 °F
Humidity 100%
Rainfall 1.77 in
Snow Depth Not available.
6:14 AM 8:44 PM
Waxing Crescent, 18% visible
METAR KAFK 270435Z AUTO 00000KT 2 1/2SM BR SCT002 BKN007 OVC023 24/24 A3001 RMK AO2 T02400240

Get Severe Weather Alerts

Thanks for signing up!

Be on the lookout for a verification email in your inbox.

You'll start receiving the daily forecast at 6 AM.

×

10-Day Weather Forecast

Almanac

Astronomy

Jul. 26, 2017 Rise Set
Actual Time
Civil Twilight
Nautical Twilight
Astronomical Twilight
Moon
Length of Visible Light
Length of Day
Tomorrow will be .
, % of the Moon is Illuminated

Today's Extremes

State Highs State Lows

Community

WunderPhotos

Category 6

Welcome to Category 6. This is the collective home for Weather Underground's featured writeups by Dr. Jeff Masters (right), Bob Henson (left), Chris Burt, and other regular contributors.

Nearby

Air Quality

  Air Quality AQ Index Pollutant
Not available.

Snow Depth

Station Depth Elevation

Earthquake Activity

City Distance Mag. Time & Date
Minimum magnitude displayed is 2.5.

Coastal Water Temperatures

Place Temperature

Stations

Nearby Weather Stations

Station Location Temp. Windchill Dew Point Humidity Wind Precip. Elev Updated Type
                   

Watches & Warnings

There are currently no watches in effect.